aviador You're here:

KMIW Decoded Metar

MARSHALLTOWN in IA, USA
Report Time2017-11-18 13:53:00
UTC Time2017-11-18 14:02:46
Flight Rules ifr IFR
Wind340° at 21 Gusting to 25 kt
W.Decomp.*RWY 36: 19.6 kt HW 7.5 kt LCW
RWY 31: 18.4 kt HW 10.2 kt RCW
W.Rank340° ranks 14
Current wind is above 340° avg. (9.8)
Visibility6437 m
Phenomena:Mist
Clouds:Overcast 007 Hf
Expected CloudBase > 400 ft AGL from Temp-Dew spread
Ceiling700 ft
Temp03°C (ISA -10)
Dew Point02°C (93% RH)
AAT-6.2°C
QNH1004 hPa
Density Alt157 ft
Elevation971 ft
Report Wrong Elevation
Raw Report
KMIW 181353Z AUTO 34021G25KT 4SM BR OVC007 03/02 A2966 RMK AO2
SLP050 T00280022=

Extra information for KMIW:More info

Metar Taf Metar & Taf Last 4 Metars F.Rules Stats Wind Profile Meteogram Temp Stats Airport Information Weather charts Add Link Nearby VenuesMetar ALERT Operation Metar Decoded Social comments

AIRNAV info for KMIW